Time;durP1;ratioP1;P1;durP2;ratioP2;P2;SDS_P1;SDS_P2;PMS_P1;PMS_P2;Temp;Humidity;BMP_temperature;BMP_pressure;BME280_temperature;BME280_humidity;BME280_pressure;Samples;Min_cycle;Max_cycle;Signal;HPM_P1;HPM_P2
2021/11/12 00:02:09;;;;;;;;;;;154.30;2252.80;;;;;;5017586;28;20144;-75
2021/11/12 00:14:43;;;;;;;;;;;154.20;2252.80;;;;;;4936997;29;20040;-77
2021/11/12 00:17:10;;;;;;;18.00;8.15;;;154.10;2252.80;;;;;;4933875;29;19920;-74
2021/11/12 00:19:37;;;;;;;18.15;8.90;;;154.20;2252.80;;;;;;4936474;29;20120;-75
2021/11/12 00:22:02;;;;;;;;;;;154.00;2252.80;;;;;;4936920;29;20032;-76
2021/11/12 00:24:28;;;;;;;21.58;8.45;;;153.70;2252.80;;;;;;4933787;29;19914;-75
2021/11/12 00:26:54;;;;;;;;;;;153.60;2252.80;;;;;;4920920;29;20063;-75
2021/11/12 00:29:20;;;;;;;16.35;9.55;;;153.60;2252.80;;;;;;4934466;29;19911;-75
2021/11/12 00:39:45;;;;;;;19.27;10.25;;;153.60;2252.80;;;;;;4996377;28;20061;-74
2021/11/12 00:42:22;;;;;;;19.98;9.55;;;153.70;2252.80;;;;;;4996206;28;20027;-75
2021/11/12 00:47:22;;;;;;;;;;;128.90;2252.80;;;;;;4996198;28;20039;-75
2021/11/12 00:50:05;;;;;;;25.45;9.43;;;128.80;2252.80;;;;;;4978594;28;19992;-75
2021/11/12 00:53:40;;;;;;;22.30;9.70;;;128.70;2252.80;;;;;;4995077;28;20022;-75
2021/11/12 00:55:30;;;;;;;24.65;10.63;;;128.60;2252.80;;;;;;4994033;28;20065;-76
2021/11/12 00:57:57;;;;;;;26.33;11.25;;;128.70;2252.80;;;;;;4995744;28;20042;-75
2021/11/12 01:00:24;;;;;;;25.02;10.52;;;128.60;2252.80;;;;;;4978038;28;20105;-75
2021/11/12 01:02:50;;;;;;;24.08;10.68;;;128.50;2252.80;;;;;;4978140;28;20018;-75
2021/11/12 01:05:16;;;;;;;;;;;128.20;2252.80;;;;;;4977808;28;20088;-75
2021/11/12 01:07:43;;;;;;;17.02;9.55;;;128.20;2252.80;;;;;;4978146;28;20365;-76
2021/11/12 01:10:11;;;;;;;16.35;8.77;;;128.10;2252.80;;;;;;4995633;28;20026;-77
2021/11/12 01:12:38;;;;;;;19.02;10.50;;;128.10;2252.80;;;;;;4977940;28;20026;-76
2021/11/12 01:15:08;;;;;;;16.98;9.30;;;128.00;2252.80;;;;;;4995370;28;20031;-76
2021/11/12 01:17:34;;;;;;;19.77;10.48;;;103.20;2227.20;;;;;;4995256;28;20041;-74
2021/11/12 01:20:00;;;;;;;26.38;10.95;;;128.00;2252.80;;;;;;4995422;28;20023;-75
2021/11/12 01:22:25;;;;;;;;;;;103.10;2227.20;;;;;;4995697;28;20036;-74
2021/11/12 01:24:52;;;;;;;25.33;12.23;;;103.10;2227.20;;;;;;4995257;28;19996;-76
2021/11/12 01:27:17;;;;;;;23.90;11.68;;;102.90;2227.20;;;;;;4995293;28;20080;-75
2021/11/12 01:29:43;;;;;;;;;;;102.90;2227.20;;;;;;4995629;28;20026;-77
2021/11/12 01:32:22;;;;;;;34.58;17.13;;;103.00;2227.20;;;;;;4994957;28;19910;-76
2021/11/12 01:34:50;;;;;;;35.30;18.10;;;103.10;2227.20;;;;;;4993771;28;20030;-76
2021/11/12 01:37:19;;;;;;;44.97;19.48;;;103.00;2227.20;;;;;;4995030;28;20049;-76
2021/11/12 01:39:54;;;;;;;43.95;19.45;;;103.00;2227.20;;;;;;4995127;28;20109;-79
2021/11/12 01:42:25;;;;;;;38.38;19.35;;;102.90;2227.20;;;;;;4974982;28;20113;-77
2021/11/12 01:44:56;;;;;;;36.33;18.65;;;102.90;2227.20;;;;;;4994903;28;20026;-76
2021/11/12 01:47:31;;;;;;;35.78;16.58;;;102.80;2227.20;;;;;;4992730;28;20093;-75
2021/11/12 01:50:03;;;;;;;33.17;16.38;;;102.80;2227.20;;;;;;4994929;28;20021;-79
2021/11/12 01:52:37;;;;;;;27.55;15.93;;;102.60;2227.20;;;;;;4994832;28;20481;-75
2021/11/12 01:55:07;;;;;;;27.23;15.38;;;102.50;2227.20;;;;;;4992834;28;20109;-74
2021/11/12 02:00:22;;;;;;;31.92;16.55;;;102.50;2227.20;;;;;;4994944;28;20029;-80
2021/11/12 02:02:48;;;;;;;31.48;17.15;;;102.80;2227.20;;;;;;4994667;28;20026;-74
2021/11/12 02:05:16;;;;;;;35.33;17.67;;;102.90;2227.20;;;;;;4994780;28;20033;-75
2021/11/12 02:07:42;;;;;;;29.83;16.60;;;103.00;2227.20;;;;;;4992313;28;20087;-75
2021/11/12 02:10:12;;;;;;;33.17;19.40;;;103.20;2227.20;;;;;;4994922;28;20033;-75
2021/11/12 02:15:30;;;;;;;28.88;14.65;;;103.30;2227.20;;;;;;4926026;29;20078;-74
2021/11/12 02:18:09;;;;;;;27.70;16.02;;;128.00;2252.80;;;;;;4926060;29;20043;-76
2021/11/12 02:20:41;;;;;;;35.00;17.05;;;128.10;2252.80;;;;;;4926012;29;20047;-77
2021/11/12 02:23:07;;;;;;;32.72;17.92;;;128.20;2252.80;;;;;;4924767;29;20028;-78
2021/11/12 02:25:44;;;;;;;;;;;128.10;2252.80;;;;;;4922054;29;20028;-77
2021/11/12 02:28:17;;;;;;;24.70;12.43;;;128.10;2252.80;;;;;;4924808;29;19915;-76
2021/11/12 02:30:48;;;;;;;27.27;13.73;;;128.10;2252.80;;;;;;4926651;29;20035;-74
2021/11/12 02:33:17;;;;;;;28.90;17.20;;;128.00;2252.80;;;;;;4925226;29;20028;-80
2021/11/12 02:36:03;;;;;;;25.77;15.35;;;128.10;2252.80;;;;;;4924020;29;20079;-75
2021/11/12 02:38:31;;;;;;;29.23;16.45;;;128.00;2252.80;;;;;;4924862;29;20099;-75
2021/11/12 02:40:58;;;;;;;25.73;15.30;;;128.00;2252.80;;;;;;4923563;29;20155;-76
2021/11/12 02:43:24;;;;;;;32.72;15.05;;;128.10;2252.80;;;;;;4926296;29;20038;-74
2021/11/12 02:45:50;;;;;;;;;;;128.10;2252.80;;;;;;4924787;29;20035;-75
2021/11/12 02:48:17;;;;;;;29.98;16.05;;;128.20;2252.80;;;;;;4925289;29;19921;-74
2021/11/12 02:50:43;;;;;;;30.20;14.73;;;128.20;2252.80;;;;;;4925585;29;20187;-77
2021/11/12 02:53:13;;;;;;;;;;;128.30;2252.80;;;;;;4964605;28;20113;-79
2021/11/12 02:55:39;;;;;;;29.83;14.68;;;128.10;2252.80;;;;;;4974764;28;19981;-75
2021/11/12 02:58:05;;;;;;;;;;;128.10;2252.80;;;;;;4975141;28;20023;-75
2021/11/12 03:00:32;;;;;;;29.27;14.13;;;128.10;2252.80;;;;;;4974265;28;19916;-75
2021/11/12 03:02:57;;;;;;;26.65;14.88;;;103.30;2227.20;;;;;;4974526;28;20030;-75
2021/11/12 03:05:23;;;;;;;;;;;103.10;2227.20;;;;;;4977460;28;20081;-75
2021/11/12 03:07:49;;;;;;;29.85;14.55;;;102.90;2227.20;;;;;;4979502;28;19913;-80
2021/11/12 03:10:27;;;;;;;30.58;14.43;;;103.00;2227.20;;;;;;4974660;28;20022;-82
2021/11/12 03:12:53;;;;;;;53.30;16.20;;;103.00;2227.20;;;;;;4971733;28;20126;-82
2021/11/12 03:15:19;;;;;;;;;;;102.90;2227.20;;;;;;4975022;28;20121;-82
2021/11/12 03:17:48;;;;;;;26.50;14.05;;;102.90;2227.20;;;;;;4974730;28;19933;-76
2021/11/12 03:20:15;;;;;;;25.27;13.73;;;102.80;2227.20;;;;;;4974397;28;20468;-75
2021/11/12 03:22:50;;;;;;;25.92;14.20;;;102.80;2227.20;;;;;;4973719;28;20019;-79
2021/11/12 03:25:41;;;;;;;39.58;15.18;;;102.80;2227.20;;;;;;4968611;28;20031;-80
2021/11/12 04:03:51;;;;;;;;;;;77.50;2227.20;;;;;;4924363;29;20032;-82
2021/11/12 05:56:45;;;;;;;73.35;25.50;;;77.70;2227.20;;;;;;4994728;28;20034;-80
2021/11/12 05:59:12;;;;;;;83.18;25.85;;;102.60;2227.20;;;;;;4992587;28;20026;-79
2021/11/12 06:01:39;;;;;;;95.78;27.08;;;102.60;2227.20;;;;;;4995155;28;20049;-80
2021/11/12 06:04:06;;;;;;;167.23;30.35;;;102.70;2227.20;;;;;;4994874;28;20029;-76
2021/11/12 06:06:32;;;;;;;104.20;28.60;;;102.60;2227.20;;;;;;4994821;28;20030;-81
2021/11/12 06:08:59;;;;;;;90.40;30.45;;;102.70;2227.20;;;;;;4977458;28;20061;-81
2021/11/12 06:11:27;;;;;;;108.10;28.42;;;102.80;2227.20;;;;;;4995149;28;20058;-80
2021/11/12 06:13:54;;;;;;;133.43;29.58;;;102.70;2227.20;;;;;;4994500;28;20054;-76
2021/11/12 06:16:21;;;;;;;101.00;30.33;;;102.60;2227.20;;;;;;4994845;28;20033;-76
2021/11/12 06:18:47;;;;;;;213.75;74.55;;;102.60;2227.20;;;;;;4994736;28;20061;-76
2021/11/12 06:21:13;;;;;;;;;;;102.70;2227.20;;;;;;4995304;28;20382;-76
2021/11/12 06:23:40;;;;;;;106.93;35.83;;;102.80;2227.20;;;;;;4994970;28;19910;-80
2021/11/12 06:26:07;;;;;;;105.30;37.25;;;102.80;2227.20;;;;;;4996630;28;20010;-81
2021/11/12 06:28:33;;;;;;;123.75;32.55;;;102.80;2227.20;;;;;;4998925;28;20026;-80
2021/11/12 06:31:00;;;;;;;;;;;102.90;2227.20;;;;;;4997648;28;20026;-80
2021/11/12 06:33:29;;;;;;;123.63;33.40;;;103.00;2227.20;;;;;;4994192;28;19940;-80
2021/11/12 06:35:57;;;;;;;153.85;49.10;;;103.10;2227.20;;;;;;4994678;28;20029;-81
2021/11/12 06:38:28;;;;;;;100.47;34.80;;;103.10;2227.20;;;;;;4991522;28;20023;-74
2021/11/12 06:40:56;;;;;;;101.63;34.47;;;103.10;2227.20;;;;;;4993179;28;20089;-75
2021/11/12 06:43:29;;;;;;;117.50;37.45;;;103.10;2227.20;;;;;;4992466;28;20054;-75
2021/11/12 06:51:24;;;;;;;93.90;32.60;;;103.20;2227.20;;;;;;4992949;28;20438;-85
2021/11/12 06:53:52;;;;;;;128.40;34.08;;;103.20;2227.20;;;;;;4992680;28;20534;-75
2021/11/12 06:56:19;;;;;;;118.45;39.00;;;103.00;2227.20;;;;;;4993789;28;20019;-76
2021/11/12 06:58:46;;;;;;;117.03;39.17;;;103.20;2227.20;;;;;;4994207;28;20014;-78
2021/11/12 07:01:13;;;;;;;140.38;42.05;;;103.10;2227.20;;;;;;4977247;28;20038;-76
2021/11/12 07:03:39;;;;;;;126.68;39.45;;;128.10;2252.80;;;;;;4976893;28;20030;-84
2021/11/12 07:06:05;;;;;;;;;;;128.20;2252.80;;;;;;4977559;28;20473;-83
2021/11/12 07:08:30;;;;;;;129.80;40.10;;;128.30;2252.80;;;;;;4994148;28;19996;-84
2021/11/12 07:10:57;;;;;;;;;;;128.10;2252.80;;;;;;4977355;28;20041;-83
2021/11/12 07:13:28;;;;;;;113.88;36.85;;;128.20;2252.80;;;;;;4994191;28;19924;-78
2021/11/12 07:15:55;;;;;;;133.27;52.45;;;128.20;2252.80;;;;;;4994143;28;20022;-76
2021/11/12 07:18:23;;;;;;;158.07;41.13;;;128.30;2252.80;;;;;;4994184;28;20034;-76
2021/11/12 07:20:50;;;;;;;143.35;49.40;;;128.30;2252.80;;;;;;5007928;28;20027;-81
2021/11/12 07:23:17;;;;;;;142.63;54.35;;;128.40;2252.80;;;;;;4994126;28;20026;-81
2021/11/12 07:25:43;;;;;;;97.95;37.55;;;128.40;2252.80;;;;;;4992378;28;20029;-75
2021/11/12 07:28:08;;;;;;;;;;;128.80;2252.80;;;;;;4965465;28;20025;-79
2021/11/12 07:30:38;;;;;;;113.10;36.35;;;128.70;2252.80;;;;;;4992642;28;19992;-73
2021/11/12 07:33:04;;;;;;;126.85;38.45;;;128.60;2252.80;;;;;;4993663;28;20118;-75
2021/11/12 07:35:35;;;;;;;106.65;34.65;;;128.70;2252.80;;;;;;4993803;28;20137;-74
2021/11/12 07:38:10;;;;;;;112.22;36.80;;;128.70;2252.80;;;;;;4976076;28;20045;-78
2021/11/12 07:46:15;;;;;;;97.47;37.92;;;128.90;2252.80;;;;;;4993220;28;20576;-75
2021/11/12 07:48:41;;;;;;;104.63;38.10;;;153.70;2252.80;;;;;;4980192;28;20181;-76
2021/11/12 07:51:08;;;;;;;115.30;38.88;;;153.70;2252.80;;;;;;4973873;28;20090;-75
2021/11/12 07:53:34;;;;;;;122.50;40.35;;;153.70;2252.80;;;;;;4975289;28;20482;-82
2021/11/12 07:56:01;;;;;;;111.75;42.47;;;153.70;2252.80;;;;;;4987306;28;20022;-79
2021/11/12 07:58:27;;;;;;;134.32;53.72;;;153.80;2252.80;;;;;;4963510;28;20039;-80
2021/11/12 08:00:52;;;;;;;;;;;154.00;2252.80;;;;;;4984099;28;20030;-76
2021/11/12 08:03:18;;;;;;;173.05;74.95;;;154.10;2252.80;;;;;;4985269;28;19906;-83
2021/11/12 08:05:46;;;;;;;;;;;154.10;2252.80;;;;;;4984893;28;20029;-83
2021/11/12 08:08:14;;;;;;;145.43;55.55;;;154.10;2252.80;;;;;;4983851;28;19936;-85
2021/11/12 08:11:16;;;;;;;120.65;52.28;;;154.10;2252.80;;;;;;4980011;28;20030;-85
2021/11/12 08:13:47;;;;;;;135.02;55.60;;;154.20;2252.80;;;;;;4980755;28;20413;-77
2021/11/12 08:19:07;;;;;;;129.27;52.00;;;154.40;2252.80;;;;;;4993827;28;20042;-74
2021/11/12 08:21:41;;;;;;;124.05;48.97;;;154.50;2252.80;;;;;;4996677;28;20030;-74
2021/11/12 08:29:25;;;;;;;;;;;179.20;2252.80;;;;;;4993236;28;20030;-75
2021/11/12 08:34:23;;;;;;;;;;;179.20;2252.80;;;;;;4988809;28;20439;-74
2021/11/12 08:42:05;;;;;;;73.28;30.88;;;179.20;2252.80;;;;;;4997008;28;20077;-75
2021/11/12 08:44:38;;;;;;;84.28;30.50;;;179.30;2252.80;;;;;;4996261;28;20027;-80
2021/11/12 08:49:38;;;;;;;74.50;30.77;;;179.40;2252.80;;;;;;5016388;28;20033;-83
2021/11/12 08:52:07;;;;;;;73.88;32.92;;;179.40;2252.80;;;;;;5007742;28;20026;-80
2021/11/12 08:54:36;;;;;;;74.50;32.00;;;179.40;2252.80;;;;;;4996630;28;20073;-75
2021/11/12 08:57:11;;;;;;;75.05;30.35;;;179.40;2252.80;;;;;;4996666;28;20467;-78
2021/11/12 08:59:41;;;;;;;84.00;32.90;;;179.50;2252.80;;;;;;4998333;28;20022;-81
2021/11/12 09:02:14;;;;;;;76.35;31.42;;;179.50;2252.80;;;;;;5016353;28;20076;-87
2021/11/12 09:04:40;;;;;;;68.35;29.67;;;179.60;2252.80;;;;;;5016337;28;20033;-83
2021/11/12 09:07:08;;;;;;;77.03;31.30;;;179.60;2252.80;;;;;;4998947;28;20447;-74
2021/11/12 09:09:34;;;;;;;82.50;32.50;;;179.60;2252.80;;;;;;5016652;28;20446;-87
2021/11/12 09:12:01;;;;;;;84.93;34.72;;;179.70;2252.80;;;;;;5016732;28;20032;-86
2021/11/12 09:14:28;;;;;;;84.95;33.97;;;179.70;2252.80;;;;;;5016330;28;20049;-82
2021/11/12 09:16:54;;;;;;;79.63;36.35;;;179.80;2252.80;;;;;;5016094;28;20029;-85
2021/11/12 09:19:20;;;;;;;;;;;179.90;2252.80;;;;;;5016942;28;20034;-82
2021/11/12 09:21:47;;;;;;;83.82;30.08;;;179.90;2252.80;;;;;;5016266;28;19906;-84
2021/11/12 09:24:14;;;;;;;66.93;29.42;;;179.90;2252.80;;;;;;5016457;28;20025;-82
2021/11/12 09:26:41;;;;;;;74.82;32.97;;;180.00;2252.80;;;;;;5016147;28;20100;-85
2021/11/12 09:29:09;;;;;;;69.25;29.08;;;180.10;2252.80;;;;;;5016041;28;20037;-76
2021/11/12 09:31:35;;;;;;;297.65;133.90;;;180.10;2252.80;;;;;;5015293;28;20033;-82
2021/11/12 09:34:01;;;;;;;;;;;204.80;2252.80;;;;;;5014517;28;20037;-76
2021/11/12 09:36:27;;;;;;;69.43;34.15;;;204.90;2252.80;;;;;;5004826;28;19910;-79
2021/11/12 09:38:54;;;;;;;77.95;37.88;;;205.00;2252.80;;;;;;4989673;28;20209;-80
2021/11/12 09:41:27;;;;;;;68.45;30.02;;;204.90;2252.80;;;;;;5003466;28;20058;-82
2021/11/12 09:43:53;;;;;;;58.55;26.80;;;205.00;2252.80;;;;;;5005487;28;20062;-75
2021/11/12 09:46:19;;;;;;;58.58;26.90;;;204.90;2252.80;;;;;;5006273;28;20797;-74
2021/11/12 09:49:03;;;;;;;;;;;205.00;2252.80;;;;;;5005835;28;20080;-74
2021/11/12 09:51:30;;;;;;;57.00;25.70;;;205.10;2252.80;;;;;;4985106;28;19912;-75
2021/11/12 09:53:56;;;;;;;74.72;32.60;;;205.00;2252.80;;;;;;5002306;28;20026;-75
2021/11/12 09:56:22;;;;;;;71.22;31.77;;;205.10;2252.80;;;;;;5002933;28;20022;-74
2021/11/12 09:58:48;;;;;;;;;;;205.20;2252.80;;;;;;5005301;28;20028;-76
2021/11/12 10:01:14;;;;;;;63.28;28.73;;;205.30;2252.80;;;;;;5006391;28;19935;-77
2021/11/12 10:03:45;;;;;;;;;;;205.30;2252.80;;;;;;5002747;28;20442;-75
2021/11/12 10:06:24;;;;;;;72.80;30.08;;;205.40;2252.80;;;;;;5001023;28;20373;-73
2021/11/12 10:08:52;;;;;;;64.78;30.83;;;205.30;2252.80;;;;;;5000594;28;20453;-81
2021/11/12 10:11:23;;;;;;;59.97;28.25;;;205.40;2252.80;;;;;;5002985;28;20069;-75
2021/11/12 10:13:58;;;;;;;54.85;28.35;;;205.50;2252.80;;;;;;5008335;28;20572;-84
2021/11/12 10:16:34;;;;;;;65.50;30.35;;;205.40;2252.80;;;;;;4988568;28;20419;-75
2021/11/12 10:19:15;;;;;;;51.05;23.58;;;205.50;2252.80;;;;;;4997664;28;20026;-79
2021/11/12 10:21:47;;;;;;;68.05;30.00;;;205.60;2252.80;;;;;;5005625;28;20110;-84
2021/11/12 10:24:17;;;;;;;60.75;26.85;;;230.40;2252.80;;;;;;5009775;28;20025;-85
2021/11/12 10:26:51;;;;;;;58.63;26.48;;;230.40;2252.80;;;;;;5004952;28;20026;-84
2021/11/12 10:29:23;;;;;;;65.88;33.58;;;230.40;2252.80;;;;;;5002023;28;20049;-84
2021/11/12 10:31:59;;;;;;;68.03;30.77;;;230.50;2252.80;;;;;;5006330;28;20014;-85
2021/11/12 10:34:30;;;;;;;61.28;27.38;;;230.50;2252.80;;;;;;5004750;28;20117;-85
2021/11/12 10:37:02;;;;;;;64.32;31.60;;;230.60;2252.80;;;;;;5000590;28;20052;-84
2021/11/12 10:39:43;;;;;;;63.55;29.35;;;205.70;2252.80;;;;;;4988195;28;20137;-84
2021/11/12 10:42:15;;;;;;;68.72;30.98;;;205.50;2252.80;;;;;;5002177;28;20014;-87
2021/11/12 10:44:50;;;;;;;66.53;30.02;;;205.70;2252.80;;;;;;5002293;28;20022;-87
2021/11/12 10:47:17;;;;;;;63.78;30.55;;;230.60;2252.80;;;;;;5003000;28;20038;-87
2021/11/12 10:49:47;;;;;;;53.72;28.73;;;230.80;2252.80;;;;;;5006128;28;20030;-82
2021/11/12 10:52:14;;;;;;;60.30;32.38;;;230.90;2252.80;;;;;;5001754;28;20097;-74
2021/11/12 10:55:02;;;;;;;62.30;28.83;;;231.00;2252.80;;;;;;5004307;28;20041;-86
2021/11/12 10:57:32;;;;;;;68.20;32.28;;;230.70;2252.80;;;;;;5003473;28;20073;-84
2021/11/12 10:59:58;;;;;;;71.65;32.30;;;231.00;2252.80;;;;;;5000767;28;20026;-76
2021/11/12 11:02:33;;;;;;;;;;;230.90;2252.80;;;;;;4997655;28;20034;-78
2021/11/12 11:05:09;;;;;;;67.18;31.15;;;231.30;2252.80;;;;;;4994732;28;19953;-81
2021/11/12 11:07:35;;;;;;;;;;;256.10;2252.80;;;;;;4995081;28;20120;-86
2021/11/12 11:10:03;;;;;;;71.10;32.47;;;256.20;2252.80;;;;;;4994489;28;20357;-75
2021/11/12 11:12:41;;;;;;;74.45;34.55;;;256.30;2252.80;;;;;;4994569;28;20470;-80
2021/11/12 11:15:19;;;;;;;71.47;34.60;;;256.20;2252.80;;;;;;4994072;28;20042;-77
2021/11/12 11:17:50;;;;;;;73.25;36.08;;;256.50;2252.80;;;;;;4994142;28;20054;-80
2021/11/12 11:20:21;;;;;;;73.68;36.28;;;256.60;2252.80;;;;;;4994361;28;20471;-80
2021/11/12 11:22:55;;;;;;;70.68;30.40;;;256.50;2252.80;;;;;;5004157;28;20382;-74
2021/11/12 11:25:23;;;;;;;66.85;31.90;;;281.60;2278.40;;;;;;5001544;28;20022;-74
2021/11/12 11:27:49;;;;;;;66.55;32.03;;;281.70;2278.40;;;;;;4999877;28;20026;-78
2021/11/12 11:30:15;;;;;;;65.10;32.00;;;281.90;2278.40;;;;;;5005292;28;20072;-77
2021/11/12 11:32:44;;;;;;;69.30;33.03;;;281.60;2278.40;;;;;;4996211;28;20434;-76
2021/11/12 11:35:10;;;;;;;77.70;36.05;;;281.60;2278.40;;;;;;4993573;28;20038;-74
2021/11/12 11:37:40;;;;;;;72.90;34.45;;;281.70;2278.40;;;;;;4993509;28;20026;-76
2021/11/12 11:40:12;;;;;;;74.30;34.25;;;256.90;2252.80;;;;;;4993475;28;20473;-74
2021/11/12 11:42:45;;;;;;;66.15;35.05;;;256.70;2252.80;;;;;;4993943;28;20074;-77
2021/11/12 11:45:13;;;;;;;66.88;33.38;;;256.90;2252.80;;;;;;4995679;28;20129;-80
2021/11/12 11:47:46;;;;;;;66.85;33.97;;;281.70;2278.40;;;;;;4997760;28;20129;-79
2021/11/12 11:50:24;;;;;;;67.20;35.50;;;281.60;2278.40;;;;;;4997983;28;20097;-79
2021/11/12 11:52:49;;;;;;;63.72;33.08;;;281.70;2278.40;;;;;;4983239;28;20023;-83
2021/11/12 11:55:36;;;;;;;67.65;34.50;;;281.80;2278.40;;;;;;4978660;28;20496;-78
2021/11/12 11:58:32;;;;;;;73.82;34.88;;;282.00;2278.40;;;;;;4978895;28;20061;-83
2021/11/12 12:01:18;;;;;;;65.80;32.47;;;281.90;2278.40;;;;;;4976821;28;20043;-82
2021/11/12 12:03:50;;;;;;;69.95;33.58;;;282.10;2278.40;;;;;;4969457;28;20038;-75
2021/11/12 12:06:19;;;;;;;74.05;32.88;;;282.20;2278.40;;;;;;4986122;28;20027;-74
2021/11/12 12:09:03;;;;;;;71.20;34.50;;;282.10;2278.40;;;;;;4982436;28;20032;-75
2021/11/12 12:11:29;;;;;;;64.03;30.88;;;282.20;2278.40;;;;;;4976491;28;20059;-76
2021/11/12 12:14:19;;;;;;;58.53;27.88;;;282.20;2278.40;;;;;;4977555;28;20125;-80
2021/11/12 12:17:12;;;;;;;63.45;31.27;;;282.30;2278.40;;;;;;4940341;29;20467;-77
2021/11/12 12:19:47;;;;;;;65.65;30.20;;;282.50;2278.40;;;;;;4956107;29;20027;-77
2021/11/12 13:26:02;;;;;;;67.97;33.40;;;281.70;2278.40;;;;;;4878898;29;20029;-82
2021/11/12 13:28:30;;;;;;;77.35;37.88;;;281.70;2278.40;;;;;;4879341;29;20076;-81
2021/11/12 13:31:06;;;;;;;69.85;34.85;;;281.80;2278.40;;;;;;4879790;29;20036;-86
2021/11/12 13:33:42;;;;;;;52.67;28.02;;;281.60;2278.40;;;;;;4932739;28;20046;-80
2021/11/12 13:36:08;;;;;;;60.90;27.85;;;281.70;2278.40;;;;;;4986631;28;20018;-79
2021/11/12 13:38:48;;;;;;;;;;;281.60;2278.40;;;;;;4985445;28;20081;-80
2021/11/12 13:41:16;;;;;;;73.43;34.38;;;281.70;2278.40;;;;;;4984914;28;19905;-82
2021/11/12 13:43:44;;;;;;;65.25;31.42;;;281.70;2278.40;;;;;;4986063;28;20076;-77
2021/11/12 13:46:11;;;;;;;74.22;37.63;;;281.60;2278.40;;;;;;4973334;28;20057;-83
2021/11/12 13:48:45;;;;;;;67.53;33.50;;;281.70;2278.40;;;;;;4996852;28;20018;-79
2021/11/12 13:51:11;;;;;;;68.63;32.90;;;281.60;2278.40;;;;;;5004623;28;20026;-76
2021/11/12 13:53:37;;;;;;;75.10;38.10;;;256.90;2252.80;;;;;;5002360;28;20108;-79
2021/11/12 13:56:08;;;;;;;78.43;41.72;;;281.60;2278.40;;;;;;4962449;28;20031;-83
2021/11/12 13:58:34;;;;;;;76.28;36.78;;;281.60;2278.40;;;;;;4973777;28;20022;-77
2021/11/12 14:01:00;;;;;;;63.70;31.50;;;281.60;2278.40;;;;;;4976240;28;20397;-77
2021/11/12 14:03:35;;;;;;;;;;;281.60;2278.40;;;;;;4994994;28;20030;-76
2021/11/12 14:06:08;;;;;;;65.40;31.75;;;281.60;2278.40;;;;;;5002630;28;19952;-77
2021/11/12 14:08:43;;;;;;;69.80;34.72;;;281.60;2278.40;;;;;;4994246;28;20158;-79
2021/11/12 14:11:26;;;;;;;66.35;31.52;;;256.90;2252.80;;;;;;4993553;28;20112;-79
2021/11/12 14:13:54;;;;;;;65.65;32.30;;;281.60;2278.40;;;;;;4993910;28;20100;-76
2021/11/12 14:16:36;;;;;;;67.80;35.05;;;256.80;2252.80;;;;;;4976731;28;20031;-77
2021/11/12 14:21:57;;;;;;;72.90;35.97;;;256.90;2252.80;;;;;;4995025;28;20022;-79
2021/11/12 14:27:14;;;;;;;82.28;40.35;;;256.80;2252.80;;;;;;4995504;28;20089;-79
2021/11/12 14:37:54;;;;;;;95.35;49.58;;;256.80;2252.80;;;;;;4995469;28;20111;-76
2021/11/12 14:40:41;;;;;;;115.68;55.03;;;256.80;2252.80;;;;;;4995190;28;20050;-78
2021/11/12 14:45:40;;;;;;;97.63;45.90;;;256.70;2252.80;;;;;;4994717;28;19905;-82
2021/11/12 14:53:22;;;;;;;116.03;56.13;;;256.50;2252.80;;;;;;4994845;28;20026;-80
2021/11/12 14:55:56;;;;;;;116.28;54.78;;;256.50;2252.80;;;;;;4982055;28;20132;-76
2021/11/12 14:58:24;;;;;;;95.97;46.85;;;256.40;2252.80;;;;;;4985661;28;20018;-81
2021/11/12 15:00:50;;;;;;;90.97;42.03;;;256.30;2252.80;;;;;;4968109;28;20061;-80
2021/11/12 15:03:16;;;;;;;95.85;43.85;;;256.30;2252.80;;;;;;4981198;28;20058;-77
2021/11/12 15:05:42;;;;;;;;;;;256.20;2252.80;;;;;;4984410;28;20070;-76
2021/11/12 15:08:15;;;;;;;96.50;42.13;;;256.10;2252.80;;;;;;4984579;28;19909;-76
2021/11/12 15:10:41;;;;;;;103.00;41.67;;;256.10;2252.80;;;;;;4983032;28;20015;-81
2021/11/12 15:13:07;;;;;;;102.38;43.97;;;231.30;2252.80;;;;;;4985656;28;20022;-80
2021/11/12 15:15:33;;;;;;;99.45;44.65;;;231.30;2252.80;;;;;;4985029;28;20046;-80
2021/11/12 15:18:04;;;;;;;99.72;42.88;;;231.10;2252.80;;;;;;4983386;28;20050;-79
2021/11/12 15:20:30;;;;;;;102.57;43.55;;;231.00;2252.80;;;;;;4984488;28;20018;-81
2021/11/12 15:25:59;;;;;;;105.43;47.60;;;230.80;2252.80;;;;;;4983236;28;20034;-77
2021/11/12 15:33:34;;;;;;;;;;;230.60;2252.80;;;;;;4986531;28;20045;-82
2021/11/12 15:36:03;;;;;;;125.57;62.47;;;230.70;2252.80;;;;;;4975067;28;19945;-81
2021/11/12 15:38:37;;;;;;;100.95;46.00;;;230.70;2252.80;;;;;;4982548;28;20513;-75
2021/11/12 15:41:18;;;;;;;105.65;45.67;;;230.50;2252.80;;;;;;4985411;28;20022;-81
2021/11/12 15:44:02;;;;;;;94.55;44.60;;;230.50;2252.80;;;;;;4975138;28;20070;-79
2021/11/12 15:46:40;;;;;;;109.75;47.42;;;230.50;2252.80;;;;;;4983077;28;20495;-83
2021/11/12 15:49:06;;;;;;;110.10;45.08;;;230.50;2252.80;;;;;;4994272;28;20054;-82
2021/11/12 15:51:44;;;;;;;;;;;230.40;2252.80;;;;;;4993969;28;20061;-77
2021/11/12 15:59:30;;;;;;;86.30;36.35;;;205.70;2252.80;;;;;;4993617;28;20348;-78
2021/11/12 16:17:59;;;;;;;107.32;45.42;;;205.50;2252.80;;;;;;4896617;29;20100;-81
2021/11/12 16:20:41;;;;;;;107.60;47.70;;;205.40;2252.80;;;;;;4896437;29;20028;-85
2021/11/12 16:25:36;;;;;;;;;;;205.40;2252.80;;;;;;4896995;29;20084;-76
2021/11/12 16:28:03;;;;;;;117.53;48.95;;;205.30;2252.80;;;;;;4896605;29;20245;-75
2021/11/12 16:30:35;;;;;;;111.22;44.35;;;205.30;2252.80;;;;;;4897002;29;20066;-76
2021/11/12 16:33:03;;;;;;;113.15;47.42;;;205.10;2252.80;;;;;;4884537;29;20593;-77
2021/11/12 16:35:33;;;;;;;114.53;50.08;;;204.90;2252.80;;;;;;4899874;29;20041;-76
2021/11/12 16:40:56;;;;;;;119.13;50.45;;;180.10;2252.80;;;;;;4849923;29;20049;-78
2021/11/12 17:01:55;;;;;;;;;;;179.50;2252.80;;;;;;4880562;29;20044;-76
2021/11/12 17:09:52;;;;;;;115.28;46.70;;;154.50;2252.80;;;;;;4860461;29;20506;-80
2021/11/12 17:12:32;;;;;;;111.15;44.45;;;154.50;2252.80;;;;;;4860412;29;20037;-78
2021/11/12 17:47:30;;;;;;;241.20;50.85;;;179.20;2252.80;;;;;;4898508;29;20089;-81
2021/11/12 18:03:38;;;;;;;136.85;48.17;;;154.50;2252.80;;;;;;4898300;29;20099;-75
2021/11/12 18:06:10;;;;;;;186.05;48.55;;;154.50;2252.80;;;;;;4895149;29;20029;-82
2021/11/12 18:14:05;;;;;;;180.77;43.70;;;154.50;2252.80;;;;;;4900948;28;19987;-77
2021/11/12 21:45:12;;;;;;;137.55;42.33;;;128.50;2252.80;;;;;;4853045;29;20518;-79
2021/11/12 21:47:39;;;;;;;116.57;42.75;;;128.40;2252.80;;;;;;4837064;29;20108;-86
2021/11/12 21:50:04;;;;;;;;;;;128.40;2252.80;;;;;;4881515;29;20041;-86
2021/11/12 21:52:30;;;;;;;153.50;43.17;;;128.40;2252.80;;;;;;4898538;29;19939;-81
2021/11/12 21:54:56;;;;;;;;;;;128.40;2252.80;;;;;;4908636;29;20092;-87
2021/11/12 21:57:21;;;;;;;137.15;44.35;;;128.50;2252.80;;;;;;4897089;29;19911;-81
2021/11/12 21:59:47;;;;;;;;;;;128.40;2252.80;;;;;;4909944;29;20032;-89
2021/11/12 22:02:14;;;;;;;124.13;40.33;;;128.40;2252.80;;;;;;4887128;29;20011;-78
2021/11/12 22:04:40;;;;;;;151.13;43.85;;;128.30;2252.80;;;;;;4898475;29;20049;-88
2021/11/12 22:07:07;;;;;;;;;;;103.30;2227.20;;;;;;4885044;29;20063;-89
2021/11/12 22:09:33;;;;;;;116.60;31.23;;;103.30;2227.20;;;;;;4902503;29;19954;-86
2021/11/12 22:12:02;;;;;;;162.52;40.05;;;103.20;2227.20;;;;;;4909120;29;20037;-88
2021/11/12 22:14:28;;;;;;;144.70;38.90;;;103.20;2227.20;;;;;;4904246;29;20028;-75
2021/11/12 22:16:54;;;;;;;;;;;103.20;2227.20;;;;;;4905655;29;20020;-86
2021/11/12 22:19:20;;;;;;;117.82;37.00;;;103.20;2227.20;;;;;;4953610;28;20050;-88
2021/11/12 22:21:45;;;;;;;;;;;103.10;2227.20;;;;;;4968532;28;20496;-82
2021/11/12 22:24:34;;;;;;;164.95;38.70;;;103.00;2227.20;;;;;;4967110;28;20333;-76
2021/11/12 22:26:59;;;;;;;175.20;41.50;;;103.00;2227.20;;;;;;4956622;29;20136;-80
2021/11/12 22:29:25;;;;;;;;;;;102.90;2227.20;;;;;;4964973;28;20034;-80
2021/11/12 22:31:51;;;;;;;119.63;40.10;;;102.80;2227.20;;;;;;4950968;28;19911;-82